| time (UTC) | temp F | wind direction | speed MPH | gust MPH | rain 1hr in | rain 24hr in | rain mn in | humidity % | barometer mb |
| 20260510021828 | 72 | 276 | 1.0 | 2.0 | 0.00 | 0.00 | 0.00 | 36 | 1016.1 |
| 20260510020332 | 73 | 92 | 0.0 | 4.0 | 0.00 | 0.00 | 0.00 | 33 | 1016.3 |
| 20260510014825 | 72 | 119 | 1.0 | 4.0 | 0.00 | 0.00 | 0.00 | 34 | 1016.4 |
| 20260510013329 | 73 | 93 | 0.0 | 4.0 | 0.00 | 0.00 | 0.00 | 31 | 1016.4 |
| 20260510011847 | 76 | 91 | 0.0 | 1.0 | 0.00 | 0.00 | 0.00 | 29 | 1016.6 |
| 20260510010328 | 72 | 95 | 0.0 | 1.0 | 0.00 | 0.00 | 0.00 | 32 | 1016.7 |
| 20260510004822 | 71 | 80 | 0.0 | 5.0 | 0.00 | 0.00 | 0.00 | 34 | 1016.5 |
| 20260510003348 | 70 | 93 | 1.0 | 4.0 | 0.00 | 0.00 | 0.00 | 35 | 1016.7 |
| 20260510001827 | 71 | 79 | 2.0 | 4.0 | 0.00 | 0.00 | 0.00 | 34 | 1016.8 |
| 20260510000328 | 69 | 105 | 1.0 | 4.0 | 0.00 | 0.00 | 0.00 | 37 | 1017.0 |
| 20260509234818 | 67 | 75 | 3.0 | 5.0 | 0.00 | 0.00 | 0.00 | 39 | 1016.9 |
| 20260509233321 | 67 | 106 | 0.0 | 3.0 | 0.00 | 0.00 | 0.00 | 43 | 1016.9 |
| 20260509231839 | 66 | 105 | 0.0 | 2.0 | 0.00 | 0.00 | 0.00 | 48 | 1016.9 |
| 20260509230331 | 64 | 86 | 1.0 | 4.0 | 0.00 | 0.00 | 0.00 | 52 | 1016.8 |
| 20260509224826 | 63 | 89 | 1.0 | 3.0 | 0.00 | 0.00 | 0.00 | 56 | 1017.0 |
| 20260509223326 | 62 | 93 | 1.0 | 3.0 | 0.00 | 0.00 | 0.00 | 58 | 1017.1 |
| 20260509221822 | 61 | 93 | 1.0 | 3.0 | 0.00 | 0.00 | 0.00 | 59 | 1017.0 |
| 20260509220322 | 60 | 86 | 0.0 | 1.0 | 0.00 | 0.00 | 0.00 | 63 | 1017.2 |
| 20260509214816 | 59 | 77 | 0.0 | 1.0 | 0.00 | 0.00 | 0.00 | 64 | 1017.2 |
| 20260509213333 | 58 | 77 | 0.0 | 1.0 | 0.00 | 0.00 | 0.00 | 66 | 1017.1 |
| 20260509211824 | 56 | 94 | 0.0 | 1.0 | 0.00 | 0.00 | 0.00 | 66 | 1017.0 |
| 20260509210321 | 54 | 85 | 0.0 | 1.0 | 0.00 | 0.00 | 0.00 | 70 | 1016.8 |
| 20260509204835 | 49 | 94 | 0.0 | 1.0 | 0.00 | 0.00 | 0.00 | 83 | 1016.6 |
| 20260509203334 | 48 | 80 | 0.0 | 0.0 | 0.00 | 0.00 | 0.00 | 83 | 1016.3 |
| 20260509201828 | 47 | 83 | 0.0 | 1.0 | 0.00 | 0.00 | 0.00 | 83 | 1016.0 |
| 20260509200333 | 47 | 101 | 0.0 | 0.0 | 0.00 | 0.00 | 0.00 | 82 | 1015.8 |
| 20260509194827 | 48 | 101 | 0.0 | 0.0 | 0.00 | 0.00 | 0.00 | 79 | 1015.5 |
| 20260509193324 | 51 | 108 | 0.0 | 1.0 | 0.00 | 0.00 | 0.00 | 75 | 1015.4 |
| 20260509191820 | 50 | 108 | 0.0 | 2.0 | 0.00 | 0.00 | 0.00 | 75 | 1015.1 |
| 20260509190323 | 50 | 104 | 0.0 | 3.0 | 0.00 | 0.00 | 0.00 | 75 | 1015.0 |
| 20260509184817 | 48 | 96 | 0.0 | 1.0 | 0.00 | 0.00 | 0.00 | 81 | 1014.9 |
| 20260509183321 | 46 | 94 | 0.0 | 0.0 | 0.00 | 0.00 | 0.00 | 85 | 1014.9 |
| 20260509181834 | 46 | 86 | 0.0 | 0.0 | 0.00 | 0.00 | 0.00 | 82 | 1014.6 |
| 20260509180316 | 49 | 86 | 0.0 | 0.0 | 0.00 | 0.00 | 0.00 | 78 | 1014.4 |
| 20260509174834 | 51 | 104 | 0.0 | 1.0 | 0.00 | 0.00 | 0.00 | 75 | 1014.3 |
| 20260509173330 | 50 | 89 | 0.0 | 1.0 | 0.00 | 0.00 | 0.00 | 77 | 1014.2 |
| 20260509171827 | 48 | 99 | 0.0 | 1.0 | 0.00 | 0.00 | 0.00 | 81 | 1014.2 |
| 20260509170325 | 46 | 98 | 0.0 | 1.0 | 0.00 | 0.00 | 0.00 | 86 | 1014.1 |
| 20260509164821 | 45 | 97 | 0.0 | 0.0 | 0.00 | 0.00 | 0.00 | 87 | 1014.0 |
| 20260509163327 | 45 | 97 | 0.0 | 0.0 | 0.00 | 0.00 | 0.00 | 88 | 1013.9 |
| 20260509161830 | 45 | 97 | 0.0 | 0.0 | 0.00 | 0.00 | 0.00 | 87 | 1013.8 |
| 20260509160329 | 46 | 96 | 0.0 | 0.0 | 0.00 | 0.00 | 0.00 | 85 | 1013.8 |
| 20260509154823 | 46 | 97 | 0.0 | 0.0 | 0.00 | 0.00 | 0.00 | 84 | 1013.5 |
| 20260509153325 | 47 | 97 | 0.0 | 0.0 | 0.00 | 0.00 | 0.00 | 84 | 1013.5 |
| 20260509151838 | 48 | 97 | 0.0 | 1.0 | 0.00 | 0.00 | 0.00 | 83 | 1013.4 |
| 20260509150341 | 48 | 105 | 0.0 | 1.0 | 0.00 | 0.00 | 0.00 | 82 | 1013.3 |
| 20260509144828 | 47 | 97 | 0.0 | 0.0 | 0.00 | 0.00 | 0.00 | 83 | 1013.3 |
| 20260509143327 | 48 | 97 | 0.0 | 1.0 | 0.00 | 0.00 | 0.00 | 82 | 1013.3 |
| 20260509141817 | 49 | 101 | 0.0 | 1.0 | 0.00 | 0.00 | 0.00 | 80 | 1013.1 |
| 20260509140337 | 50 | 101 | 0.0 | 0.0 | 0.00 | 0.00 | 0.00 | 78 | 1013.1 |
| 20260509134833 | 51 | 103 | 0.0 | 2.0 | 0.00 | 0.04 | 0.00 | 76 | 1013.0 |
| 20260509133332 | 52 | 106 | 0.0 | 1.0 | 0.00 | 0.04 | 0.00 | 71 | 1012.8 |
| 20260509131829 | 54 | 90 | 0.0 | 2.0 | 0.00 | 0.04 | 0.00 | 68 | 1012.5 |
| 20260509130331 | 54 | 93 | 0.0 | 0.0 | 0.00 | 0.04 | 0.00 | 67 | 1012.6 |
| 20260509124847 | 55 | 93 | 0.0 | 1.0 | 0.00 | 0.04 | 0.00 | 63 | 1012.4 |
| 20260509123337 | 55 | 63 | 0.0 | 0.0 | 0.00 | 0.04 | 0.00 | 62 | 1012.2 |
| 20260509121855 | 57 | 91 | 0.0 | 1.0 | 0.00 | 0.04 | 0.00 | 58 | 1012.1 |
| 20260509120334 | 57 | 96 | 0.0 | 1.0 | 0.00 | 0.04 | 0.00 | 59 | 1011.8 |
| 20260509114829 | 58 | 89 | 0.0 | 1.0 | 0.00 | 0.08 | 0.00 | 55 | 1011.6 |
| 20260509113332 | 59 | 115 | 0.0 | 3.0 | 0.00 | 0.08 | 0.00 | 53 | 1011.5 |
| 20260509111827 | 59 | 106 | 0.0 | 2.0 | 0.00 | 0.08 | 0.00 | 54 | 1011.2 |
| 20260509110332 | 58 | 112 | 0.0 | 3.0 | 0.00 | 0.08 | 0.00 | 56 | 1011.0 |
| 20260509104823 | 58 | 99 | 0.0 | 2.0 | 0.00 | 0.43 | 0.00 | 57 | 1011.0 |
| 20260509103344 | 58 | 96 | 0.0 | 1.0 | 0.00 | 0.43 | 0.00 | 57 | 1010.9 |
| 20260509101817 | 59 | 97 | 0.0 | 1.0 | 0.00 | 0.43 | 0.00 | 53 | 1010.7 |
| 20260509100339 | 59 | 104 | 0.0 | 1.0 | 0.00 | 0.43 | 0.00 | 53 | 1010.4 |
| 20260509094819 | 60 | 77 | 0.0 | 1.0 | 0.00 | 0.51 | 0.00 | 52 | 1009.9 |
| 20260509093322 | 61 | 98 | 0.0 | 3.0 | 0.00 | 0.51 | 0.00 | 49 | 1009.7 |
| 20260509091817 | 61 | 107 | 0.0 | 1.0 | 0.00 | 0.51 | 0.00 | 45 | 1009.3 |
| 20260509090341 | 63 | 103 | 0.0 | 4.0 | 0.00 | 0.51 | 0.00 | 42 | 1008.9 |
| 20260509084834 | 63 | 104 | 0.0 | 2.0 | 0.00 | 0.51 | 0.00 | 40 | 1008.6 |
| 20260509083319 | 65 | 112 | 1.0 | 5.0 | 0.00 | 0.51 | 0.00 | 39 | 1008.4 |
| 20260509081823 | 66 | 82 | 1.0 | 4.0 | 0.00 | 0.51 | 0.00 | 38 | 1008.2 |
| 20260509080326 | 66 | 112 | 0.0 | 5.0 | 0.00 | 0.51 | 0.00 | 38 | 1007.6 |
| 20260509074844 | 67 | 91 | 0.0 | 3.0 | 0.00 | 0.51 | 0.00 | 38 | 1007.2 |
| 20260509073326 | 68 | 115 | 1.0 | 5.0 | 0.00 | 0.51 | 0.00 | 34 | 1007.0 |
| 20260509071821 | 67 | 104 | 0.0 | 5.0 | 0.00 | 0.51 | 0.00 | 37 | 1007.1 |
| 20260509070328 | 67 | 118 | 1.0 | 6.0 | 0.00 | 0.51 | 0.00 | 38 | 1006.9 |
| 20260509064830 | 67 | 113 | 1.0 | 8.0 | 0.00 | 0.51 | 0.00 | 39 | 1006.7 |
| 20260509063332 | 68 | 98 | 2.0 | 6.0 | 0.00 | 0.51 | 0.00 | 37 | 1006.4 |
| 20260509061825 | 68 | 89 | 1.0 | 4.0 | 0.00 | 0.51 | 0.00 | 40 | 1006.1 |
| 20260509060328 | 67 | 82 | 1.0 | 6.0 | 0.00 | 0.51 | 0.00 | 42 | 1006.0 |
| 20260509054830 | 67 | 112 | 1.0 | 7.0 | 0.00 | 0.51 | 0.00 | 45 | 1005.9 |
| 20260509053355 | 66 | 115 | 2.0 | 9.0 | 0.00 | 0.51 | 0.00 | 45 | 1006.0 |
| 20260509051854 | 66 | 166 | 2.0 | 7.0 | 0.00 | 0.51 | 0.00 | 46 | 1005.9 |
| 20260509050316 | 66 | 141 | 4.0 | 8.0 | 0.00 | 0.51 | 0.00 | 45 | 1005.9 |
| 20260509044818 | 67 | 86 | 2.0 | 7.0 | 0.00 | 0.51 | 0.00 | 42 | 1005.6 |
| 20260509043344 | 68 | 120 | 4.0 | 8.0 | 0.00 | 0.51 | 0.00 | 40 | 1005.5 |
| 20260509041841 | 67 | 124 | 4.0 | 7.0 | 0.00 | 0.51 | 0.00 | 45 | 1005.7 |
| 20260509040347 | 67 | 108 | 2.0 | 8.0 | 0.00 | 0.51 | 0.00 | 46 | 1005.9 |
| 20260509034827 | 68 | 110 | 1.0 | 4.0 | 0.00 | 0.51 | 0.00 | 42 | 1005.6 |
| 20260509033333 | 69 | 122 | 0.0 | 2.0 | 0.00 | 0.51 | 0.00 | 39 | 1005.6 |
| 20260509031825 | 70 | 267 | 0.0 | 2.0 | 0.00 | 0.51 | 0.00 | 39 | 1005.6 |
| 20260509030324 | 69 | 144 | 0.0 | 3.0 | 0.00 | 0.51 | 0.00 | 39 | 1005.6 |
| 20260509024819 | 68 | 114 | 2.0 | 7.0 | 0.00 | 0.51 | 0.00 | 43 | 1005.3 |
| 20260509023336 | 67 | 105 | 1.0 | 6.0 | 0.00 | 0.51 | 0.00 | 42 | 1005.6 |